sensor_id;sensor_type;location;lat;lon;timestamp;temperature;humidity
36856;DHT22;22788;51.434;6.786;2023-01-10T00:01:23;8.40;99.90
36856;DHT22;22788;51.434;6.786;2023-01-10T00:03:49;8.40;99.90
36856;DHT22;22788;51.434;6.786;2023-01-10T00:06:15;8.30;99.90
36856;DHT22;22788;51.434;6.786;2023-01-10T00:08:43;8.20;99.90
36856;DHT22;22788;51.434;6.786;2023-01-10T00:11:09;8.20;99.90
36856;DHT22;22788;51.434;6.786;2023-01-10T00:13:35;8.20;99.90
36856;DHT22;22788;51.434;6.786;2023-01-10T00:16:07;8.00;99.90
36856;DHT22;22788;51.434;6.786;2023-01-10T00:18:33;7.90;99.90
36856;DHT22;22788;51.434;6.786;2023-01-10T00:20:59;7.90;99.90
36856;DHT22;22788;51.434;6.786;2023-01-10T00:23:25;8.00;99.90
36856;DHT22;22788;51.434;6.786;2023-01-10T00:25:53;8.00;99.90
36856;DHT22;22788;51.434;6.786;2023-01-10T00:28:19;8.10;99.90
36856;DHT22;22788;51.434;6.786;2023-01-10T00:30:47;8.00;99.90
36856;DHT22;22788;51.434;6.786;2023-01-10T00:33:13;8.00;99.90
36856;DHT22;22788;51.434;6.786;2023-01-10T00:35:39;8.00;99.90
36856;DHT22;22788;51.434;6.786;2023-01-10T00:38:05;8.00;99.90
36856;DHT22;22788;51.434;6.786;2023-01-10T00:40:31;7.90;99.90
36856;DHT22;22788;51.434;6.786;2023-01-10T00:42:59;7.90;99.90
36856;DHT22;22788;51.434;6.786;2023-01-10T00:45:25;8.00;99.90
36856;DHT22;22788;51.434;6.786;2023-01-10T00:47:51;8.10;99.90
36856;DHT22;22788;51.434;6.786;2023-01-10T00:50:17;8.20;99.90
36856;DHT22;22788;51.434;6.786;2023-01-10T00:52:44;8.20;99.90
36856;DHT22;22788;51.434;6.786;2023-01-10T00:55:10;8.20;99.90
36856;DHT22;22788;51.434;6.786;2023-01-10T00:57:36;8.20;99.90
36856;DHT22;22788;51.434;6.786;2023-01-10T01:00:04;8.30;99.90
36856;DHT22;22788;51.434;6.786;2023-01-10T01:02:31;8.20;99.90
36856;DHT22;22788;51.434;6.786;2023-01-10T01:04:57;8.20;99.90
36856;DHT22;22788;51.434;6.786;2023-01-10T01:07:23;8.20;99.90
36856;DHT22;22788;51.434;6.786;2023-01-10T01:09:49;8.20;99.90
36856;DHT22;22788;51.434;6.786;2023-01-10T01:12:15;8.10;99.90
36856;DHT22;22788;51.434;6.786;2023-01-10T01:14:41;8.20;99.90
36856;DHT22;22788;51.434;6.786;2023-01-10T01:17:08;8.10;99.90
36856;DHT22;22788;51.434;6.786;2023-01-10T01:19:35;8.00;99.90
36856;DHT22;22788;51.434;6.786;2023-01-10T01:22:01;8.00;99.90
36856;DHT22;22788;51.434;6.786;2023-01-10T01:24:27;8.10;99.90
36856;DHT22;22788;51.434;6.786;2023-01-10T01:26:53;8.00;99.90
36856;DHT22;22788;51.434;6.786;2023-01-10T01:29:19;7.90;99.90
36856;DHT22;22788;51.434;6.786;2023-01-10T01:31:45;7.90;99.90
36856;DHT22;22788;51.434;6.786;2023-01-10T01:34:12;8.00;99.90
36856;DHT22;22788;51.434;6.786;2023-01-10T01:36:38;8.00;99.90
36856;DHT22;22788;51.434;6.786;2023-01-10T01:39:04;7.90;99.90
36856;DHT22;22788;51.434;6.786;2023-01-10T01:41:31;7.80;99.90
36856;DHT22;22788;51.434;6.786;2023-01-10T01:44:02;7.80;99.90
36856;DHT22;22788;51.434;6.786;2023-01-10T01:46:31;7.80;99.90
36856;DHT22;22788;51.434;6.786;2023-01-10T01:48:58;7.80;99.90
36856;DHT22;22788;51.434;6.786;2023-01-10T01:51:27;7.80;99.90
36856;DHT22;22788;51.434;6.786;2023-01-10T01:53:58;7.90;99.90
36856;DHT22;22788;51.434;6.786;2023-01-10T01:56:29;7.80;99.90
36856;DHT22;22788;51.434;6.786;2023-01-10T01:59:00;7.80;99.90
36856;DHT22;22788;51.434;6.786;2023-01-10T02:01:27;8.00;99.90
36856;DHT22;22788;51.434;6.786;2023-01-10T02:03:59;7.90;99.90
36856;DHT22;22788;51.434;6.786;2023-01-10T02:06:27;8.10;99.90
36856;DHT22;22788;51.434;6.786;2023-01-10T02:08:59;8.10;99.90
36856;DHT22;22788;51.434;6.786;2023-01-10T02:11:28;8.10;99.90
36856;DHT22;22788;51.434;6.786;2023-01-10T02:13:57;8.10;99.90
36856;DHT22;22788;51.434;6.786;2023-01-10T02:16:24;7.80;99.90
36856;DHT22;22788;51.434;6.786;2023-01-10T02:18:50;7.80;99.90
36856;DHT22;22788;51.434;6.786;2023-01-10T02:27:27;8.10;99.90
36856;DHT22;22788;51.434;6.786;2023-01-10T02:30:36;7.90;99.90
36856;DHT22;22788;51.434;6.786;2023-01-10T02:33:16;8.10;99.90
36856;DHT22;22788;51.434;6.786;2023-01-10T02:35:59;8.00;99.90
36856;DHT22;22788;51.434;6.786;2023-01-10T02:38:35;8.10;99.90
36856;DHT22;22788;51.434;6.786;2023-01-10T02:41:11;8.10;99.90
36856;DHT22;22788;51.434;6.786;2023-01-10T02:43:41;8.20;99.90
36856;DHT22;22788;51.434;6.786;2023-01-10T02:46:13;8.20;99.90
36856;DHT22;22788;51.434;6.786;2023-01-10T02:48:42;8.10;99.90
36856;DHT22;22788;51.434;6.786;2023-01-10T02:51:16;8.10;99.90
36856;DHT22;22788;51.434;6.786;2023-01-10T02:53:45;8.10;99.90
36856;DHT22;22788;51.434;6.786;2023-01-10T03:02:20;8.10;99.90
36856;DHT22;22788;51.434;6.786;2023-01-10T03:04:55;8.10;99.90
36856;DHT22;22788;51.434;6.786;2023-01-10T03:07:32;8.00;99.90
36856;DHT22;22788;51.434;6.786;2023-01-10T03:10:02;8.00;99.90
36856;DHT22;22788;51.434;6.786;2023-01-10T03:12:36;7.90;99.90
36856;DHT22;22788;51.434;6.786;2023-01-10T03:15:06;8.00;99.90
36856;DHT22;22788;51.434;6.786;2023-01-10T03:17:34;7.90;99.90
36856;DHT22;22788;51.434;6.786;2023-01-10T03:20:04;7.70;99.90
36856;DHT22;22788;51.434;6.786;2023-01-10T03:22:34;7.70;99.90
36856;DHT22;22788;51.434;6.786;2023-01-10T03:25:05;7.80;99.90
36856;DHT22;22788;51.434;6.786;2023-01-10T03:27:39;7.90;99.90
36856;DHT22;22788;51.434;6.786;2023-01-10T03:30:14;7.90;99.90
36856;DHT22;22788;51.434;6.786;2023-01-10T03:32:43;8.00;99.90
36856;DHT22;22788;51.434;6.786;2023-01-10T03:35:11;7.80;99.90
36856;DHT22;22788;51.434;6.786;2023-01-10T03:37:43;7.70;99.90
36856;DHT22;22788;51.434;6.786;2023-01-10T03:40:15;7.80;99.90
36856;DHT22;22788;51.434;6.786;2023-01-10T03:42:48;7.90;99.90
36856;DHT22;22788;51.434;6.786;2023-01-10T03:45:20;7.90;99.90
36856;DHT22;22788;51.434;6.786;2023-01-10T03:47:50;7.90;99.90
36856;DHT22;22788;51.434;6.786;2023-01-10T03:50:22;7.90;99.90
36856;DHT22;22788;51.434;6.786;2023-01-10T03:52:48;7.90;99.90
36856;DHT22;22788;51.434;6.786;2023-01-10T03:55:18;7.90;99.90
36856;DHT22;22788;51.434;6.786;2023-01-10T03:57:44;7.90;99.90
36856;DHT22;22788;51.434;6.786;2023-01-10T04:00:12;7.90;99.90
36856;DHT22;22788;51.434;6.786;2023-01-10T04:02:38;7.90;99.90
36856;DHT22;22788;51.434;6.786;2023-01-10T04:05:05;7.90;99.90
36856;DHT22;22788;51.434;6.786;2023-01-10T04:07:33;7.90;99.90
36856;DHT22;22788;51.434;6.786;2023-01-10T04:09:59;7.90;99.90
36856;DHT22;22788;51.434;6.786;2023-01-10T04:12:25;7.90;99.90
36856;DHT22;22788;51.434;6.786;2023-01-10T04:14:52;7.90;99.90
36856;DHT22;22788;51.434;6.786;2023-01-10T04:17:18;7.90;99.90
36856;DHT22;22788;51.434;6.786;2023-01-10T04:19:44;7.90;99.90
36856;DHT22;22788;51.434;6.786;2023-01-10T04:22:11;8.00;99.90
36856;DHT22;22788;51.434;6.786;2023-01-10T04:24:38;8.00;99.90
36856;DHT22;22788;51.434;6.786;2023-01-10T04:27:05;8.00;99.90
36856;DHT22;22788;51.434;6.786;2023-01-10T04:29:31;8.00;99.90
36856;DHT22;22788;51.434;6.786;2023-01-10T04:31:57;7.90;99.90
36856;DHT22;22788;51.434;6.786;2023-01-10T04:34:23;8.00;99.90
36856;DHT22;22788;51.434;6.786;2023-01-10T04:36:49;8.00;99.90
36856;DHT22;22788;51.434;6.786;2023-01-10T04:39:15;8.00;99.90
36856;DHT22;22788;51.434;6.786;2023-01-10T04:41:43;8.00;99.90
36856;DHT22;22788;51.434;6.786;2023-01-10T04:44:09;8.00;99.90
36856;DHT22;22788;51.434;6.786;2023-01-10T04:46:35;7.90;99.90
36856;DHT22;22788;51.434;6.786;2023-01-10T04:49:01;8.00;99.90
36856;DHT22;22788;51.434;6.786;2023-01-10T04:51:27;8.00;99.90
36856;DHT22;22788;51.434;6.786;2023-01-10T04:53:53;8.00;99.90
36856;DHT22;22788;51.434;6.786;2023-01-10T04:56:21;7.90;99.90
36856;DHT22;22788;51.434;6.786;2023-01-10T04:58:49;8.00;99.90
36856;DHT22;22788;51.434;6.786;2023-01-10T05:01:16;7.90;99.90
36856;DHT22;22788;51.434;6.786;2023-01-10T05:03:43;8.00;99.90
36856;DHT22;22788;51.434;6.786;2023-01-10T05:06:09;7.90;99.90
36856;DHT22;22788;51.434;6.786;2023-01-10T05:08:35;7.90;99.90
36856;DHT22;22788;51.434;6.786;2023-01-10T05:11:01;8.00;99.90
36856;DHT22;22788;51.434;6.786;2023-01-10T05:13:27;7.90;99.90
36856;DHT22;22788;51.434;6.786;2023-01-10T05:15:55;7.90;99.90
36856;DHT22;22788;51.434;6.786;2023-01-10T05:18:22;7.90;99.90
36856;DHT22;22788;51.434;6.786;2023-01-10T05:20:48;7.90;99.90
36856;DHT22;22788;51.434;6.786;2023-01-10T05:23:14;7.90;99.90
36856;DHT22;22788;51.434;6.786;2023-01-10T05:25:41;7.90;99.90
36856;DHT22;22788;51.434;6.786;2023-01-10T05:28:07;7.90;99.90
36856;DHT22;22788;51.434;6.786;2023-01-10T05:30:33;7.90;99.90
36856;DHT22;22788;51.434;6.786;2023-01-10T05:33:02;7.80;99.90
36856;DHT22;22788;51.434;6.786;2023-01-10T05:35:28;7.80;99.90
36856;DHT22;22788;51.434;6.786;2023-01-10T05:37:54;7.80;99.90
36856;DHT22;22788;51.434;6.786;2023-01-10T05:40:21;7.60;99.90
36856;DHT22;22788;51.434;6.786;2023-01-10T05:42:47;7.70;99.90
36856;DHT22;22788;51.434;6.786;2023-01-10T05:45:13;7.70;99.90
36856;DHT22;22788;51.434;6.786;2023-01-10T05:47:39;7.80;99.90
36856;DHT22;22788;51.434;6.786;2023-01-10T05:50:08;7.80;99.90
36856;DHT22;22788;51.434;6.786;2023-01-10T05:52:34;7.80;99.90
36856;DHT22;22788;51.434;6.786;2023-01-10T05:55:00;7.70;99.90
36856;DHT22;22788;51.434;6.786;2023-01-10T05:57:26;7.80;99.90
36856;DHT22;22788;51.434;6.786;2023-01-10T05:59:52;7.70;99.90
36856;DHT22;22788;51.434;6.786;2023-01-10T06:02:18;7.70;99.90
36856;DHT22;22788;51.434;6.786;2023-01-10T06:04:44;7.70;99.90
36856;DHT22;22788;51.434;6.786;2023-01-10T06:07:12;7.70;99.90
36856;DHT22;22788;51.434;6.786;2023-01-10T06:09:38;7.80;99.90
36856;DHT22;22788;51.434;6.786;2023-01-10T06:12:04;7.80;99.90
36856;DHT22;22788;51.434;6.786;2023-01-10T06:14:30;7.60;99.90
36856;DHT22;22788;51.434;6.786;2023-01-10T06:16:57;7.60;99.90
36856;DHT22;22788;51.434;6.786;2023-01-10T06:19:23;7.70;99.90
36856;DHT22;22788;51.434;6.786;2023-01-10T06:21:49;7.70;99.90
36856;DHT22;22788;51.434;6.786;2023-01-10T06:24:17;7.70;99.90
36856;DHT22;22788;51.434;6.786;2023-01-10T06:26:43;7.60;99.90
36856;DHT22;22788;51.434;6.786;2023-01-10T06:29:09;7.70;99.90
36856;DHT22;22788;51.434;6.786;2023-01-10T06:31:35;7.60;99.90
36856;DHT22;22788;51.434;6.786;2023-01-10T06:34:01;7.60;99.90
36856;DHT22;22788;51.434;6.786;2023-01-10T06:36:27;7.70;99.90
36856;DHT22;22788;51.434;6.786;2023-01-10T06:38:53;7.70;99.90
36856;DHT22;22788;51.434;6.786;2023-01-10T06:41:20;7.70;99.90
36856;DHT22;22788;51.434;6.786;2023-01-10T06:43:48;7.60;99.90
36856;DHT22;22788;51.434;6.786;2023-01-10T06:46:17;7.60;99.90
36856;DHT22;22788;51.434;6.786;2023-01-10T06:48:44;7.60;99.90
36856;DHT22;22788;51.434;6.786;2023-01-10T06:51:11;7.60;99.90
36856;DHT22;22788;51.434;6.786;2023-01-10T06:53:37;7.60;99.90
36856;DHT22;22788;51.434;6.786;2023-01-10T06:56:04;7.60;99.90
36856;DHT22;22788;51.434;6.786;2023-01-10T06:58:32;7.70;99.90
36856;DHT22;22788;51.434;6.786;2023-01-10T07:00:58;7.70;99.90
36856;DHT22;22788;51.434;6.786;2023-01-10T07:03:24;7.60;99.90
36856;DHT22;22788;51.434;6.786;2023-01-10T07:05:50;7.60;99.90
36856;DHT22;22788;51.434;6.786;2023-01-10T07:08:16;7.60;99.90
36856;DHT22;22788;51.434;6.786;2023-01-10T07:10:43;7.60;99.90
36856;DHT22;22788;51.434;6.786;2023-01-10T07:13:09;7.60;99.90
36856;DHT22;22788;51.434;6.786;2023-01-10T07:15:37;7.50;99.90
36856;DHT22;22788;51.434;6.786;2023-01-10T07:18:03;7.60;99.90
36856;DHT22;22788;51.434;6.786;2023-01-10T07:20:29;7.60;99.90
36856;DHT22;22788;51.434;6.786;2023-01-10T07:22:56;7.60;99.90
36856;DHT22;22788;51.434;6.786;2023-01-10T07:25:23;7.60;99.90
36856;DHT22;22788;51.434;6.786;2023-01-10T07:27:49;7.50;99.90
36856;DHT22;22788;51.434;6.786;2023-01-10T07:30:15;7.50;99.90
36856;DHT22;22788;51.434;6.786;2023-01-10T07:32:43;7.60;99.90
36856;DHT22;22788;51.434;6.786;2023-01-10T07:35:09;7.60;99.90
36856;DHT22;22788;51.434;6.786;2023-01-10T07:37:35;7.60;99.90
36856;DHT22;22788;51.434;6.786;2023-01-10T07:40:01;7.60;99.90
36856;DHT22;22788;51.434;6.786;2023-01-10T07:42:27;7.50;99.90
36856;DHT22;22788;51.434;6.786;2023-01-10T07:44:53;7.50;99.90
36856;DHT22;22788;51.434;6.786;2023-01-10T07:47:19;7.60;99.90
36856;DHT22;22788;51.434;6.786;2023-01-10T07:49:46;7.60;99.90
36856;DHT22;22788;51.434;6.786;2023-01-10T07:52:13;7.60;99.90
36856;DHT22;22788;51.434;6.786;2023-01-10T07:54:39;7.60;99.90
36856;DHT22;22788;51.434;6.786;2023-01-10T07:57:05;7.60;99.90
36856;DHT22;22788;51.434;6.786;2023-01-10T07:59:31;7.60;99.90
36856;DHT22;22788;51.434;6.786;2023-01-10T08:01:57;7.60;99.90
36856;DHT22;22788;51.434;6.786;2023-01-10T08:04:23;7.60;99.90
36856;DHT22;22788;51.434;6.786;2023-01-10T08:06:53;7.50;99.90
36856;DHT22;22788;51.434;6.786;2023-01-10T08:09:19;7.60;99.90
36856;DHT22;22788;51.434;6.786;2023-01-10T08:11:45;7.60;99.90
36856;DHT22;22788;51.434;6.786;2023-01-10T08:14:11;7.50;99.90
36856;DHT22;22788;51.434;6.786;2023-01-10T08:16:37;7.50;99.90
36856;DHT22;22788;51.434;6.786;2023-01-10T08:19:03;7.60;99.90
36856;DHT22;22788;51.434;6.786;2023-01-10T08:21:29;7.60;99.90
36856;DHT22;22788;51.434;6.786;2023-01-10T08:23:56;7.60;99.90
36856;DHT22;22788;51.434;6.786;2023-01-10T08:26:22;7.60;99.90
36856;DHT22;22788;51.434;6.786;2023-01-10T08:28:49;7.70;99.90
36856;DHT22;22788;51.434;6.786;2023-01-10T08:31:15;7.60;99.90
36856;DHT22;22788;51.434;6.786;2023-01-10T08:33:41;7.50;99.90
36856;DHT22;22788;51.434;6.786;2023-01-10T08:36:14;7.60;99.90
36856;DHT22;22788;51.434;6.786;2023-01-10T08:38:40;7.50;99.90
36856;DHT22;22788;51.434;6.786;2023-01-10T08:41:07;7.60;99.90
36856;DHT22;22788;51.434;6.786;2023-01-10T08:43:33;7.50;99.90
36856;DHT22;22788;51.434;6.786;2023-01-10T08:45:59;7.50;99.90
36856;DHT22;22788;51.434;6.786;2023-01-10T08:48:25;7.50;99.90
36856;DHT22;22788;51.434;6.786;2023-01-10T08:50:52;7.50;99.90
36856;DHT22;22788;51.434;6.786;2023-01-10T08:53:18;7.60;99.90
36856;DHT22;22788;51.434;6.786;2023-01-10T08:55:44;7.60;99.90
36856;DHT22;22788;51.434;6.786;2023-01-10T08:58:11;7.60;99.90
36856;DHT22;22788;51.434;6.786;2023-01-10T09:00:37;7.50;99.90
36856;DHT22;22788;51.434;6.786;2023-01-10T09:03:05;7.50;99.90
36856;DHT22;22788;51.434;6.786;2023-01-10T09:05:31;7.60;99.90
36856;DHT22;22788;51.434;6.786;2023-01-10T09:07:58;7.60;99.90
36856;DHT22;22788;51.434;6.786;2023-01-10T09:10:24;7.50;99.90
36856;DHT22;22788;51.434;6.786;2023-01-10T09:12:50;7.60;99.90
36856;DHT22;22788;51.434;6.786;2023-01-10T09:15:17;7.60;99.90
36856;DHT22;22788;51.434;6.786;2023-01-10T09:17:43;7.60;99.90
36856;DHT22;22788;51.434;6.786;2023-01-10T09:20:10;7.60;99.90
36856;DHT22;22788;51.434;6.786;2023-01-10T09:22:36;7.60;99.90
36856;DHT22;22788;51.434;6.786;2023-01-10T09:25:03;7.50;99.90
36856;DHT22;22788;51.434;6.786;2023-01-10T09:27:29;7.50;99.90
36856;DHT22;22788;51.434;6.786;2023-01-10T09:29:55;7.50;99.90
36856;DHT22;22788;51.434;6.786;2023-01-10T09:32:23;7.50;99.90
36856;DHT22;22788;51.434;6.786;2023-01-10T09:34:49;7.50;99.90
36856;DHT22;22788;51.434;6.786;2023-01-10T09:37:15;7.50;99.90
36856;DHT22;22788;51.434;6.786;2023-01-10T09:39:41;7.50;99.90
36856;DHT22;22788;51.434;6.786;2023-01-10T09:42:23;7.60;99.90
36856;DHT22;22788;51.434;6.786;2023-01-10T09:44:57;7.60;99.90
36856;DHT22;22788;51.434;6.786;2023-01-10T09:47:32;7.60;99.90
36856;DHT22;22788;51.434;6.786;2023-01-10T09:50:11;7.50;99.90
36856;DHT22;22788;51.434;6.786;2023-01-10T09:52:43;7.50;99.90
36856;DHT22;22788;51.434;6.786;2023-01-10T09:55:17;7.50;99.90
36856;DHT22;22788;51.434;6.786;2023-01-10T09:57:45;7.50;99.90
36856;DHT22;22788;51.434;6.786;2023-01-10T10:00:16;7.60;99.90
36856;DHT22;22788;51.434;6.786;2023-01-10T10:02:48;7.60;99.90
36856;DHT22;22788;51.434;6.786;2023-01-10T10:05:18;7.60;99.90
36856;DHT22;22788;51.434;6.786;2023-01-10T10:07:45;7.60;99.90
36856;DHT22;22788;51.434;6.786;2023-01-10T10:10:17;7.50;99.90
36856;DHT22;22788;51.434;6.786;2023-01-10T10:12:56;7.50;99.90
36856;DHT22;22788;51.434;6.786;2023-01-10T10:15:32;7.50;99.90
36856;DHT22;22788;51.434;6.786;2023-01-10T10:18:11;7.60;99.90
36856;DHT22;22788;51.434;6.786;2023-01-10T10:20:49;7.70;99.90
36856;DHT22;22788;51.434;6.786;2023-01-10T10:23:28;7.60;99.90
36856;DHT22;22788;51.434;6.786;2023-01-10T10:26:02;7.60;99.90
36856;DHT22;22788;51.434;6.786;2023-01-10T10:29:01;7.60;99.90
36856;DHT22;22788;51.434;6.786;2023-01-10T10:31:43;7.60;99.90
36856;DHT22;22788;51.434;6.786;2023-01-10T10:34:22;7.60;99.90
36856;DHT22;22788;51.434;6.786;2023-01-10T10:36:52;7.60;99.90
36856;DHT22;22788;51.434;6.786;2023-01-10T10:39:22;7.60;99.90
36856;DHT22;22788;51.434;6.786;2023-01-10T10:41:51;7.60;99.90
36856;DHT22;22788;51.434;6.786;2023-01-10T10:44:27;7.60;99.90
36856;DHT22;22788;51.434;6.786;2023-01-10T10:46:57;7.60;99.90
36856;DHT22;22788;51.434;6.786;2023-01-10T10:49:35;7.60;99.90
36856;DHT22;22788;51.434;6.786;2023-01-10T10:52:07;7.60;99.90
36856;DHT22;22788;51.434;6.786;2023-01-10T10:54:37;7.70;99.90
36856;DHT22;22788;51.434;6.786;2023-01-10T10:57:03;7.60;99.90
36856;DHT22;22788;51.434;6.786;2023-01-10T10:59:29;7.60;99.90
36856;DHT22;22788;51.434;6.786;2023-01-10T11:01:55;7.60;99.90
36856;DHT22;22788;51.434;6.786;2023-01-10T11:04:22;7.60;99.90
36856;DHT22;22788;51.434;6.786;2023-01-10T11:06:50;7.70;99.90
36856;DHT22;22788;51.434;6.786;2023-01-10T11:09:19;7.70;99.90
36856;DHT22;22788;51.434;6.786;2023-01-10T11:11:48;7.70;99.90
36856;DHT22;22788;51.434;6.786;2023-01-10T11:14:14;7.80;99.90
36856;DHT22;22788;51.434;6.786;2023-01-10T11:16:41;7.70;99.90
36856;DHT22;22788;51.434;6.786;2023-01-10T11:19:12;7.70;99.90
36856;DHT22;22788;51.434;6.786;2023-01-10T11:21:40;7.80;99.90
36856;DHT22;22788;51.434;6.786;2023-01-10T11:24:27;7.70;99.90
36856;DHT22;22788;51.434;6.786;2023-01-10T11:26:54;7.70;99.90
36856;DHT22;22788;51.434;6.786;2023-01-10T11:29:24;7.70;99.90
36856;DHT22;22788;51.434;6.786;2023-01-10T11:31:52;7.70;99.90
36856;DHT22;22788;51.434;6.786;2023-01-10T11:34:23;7.70;99.90
36856;DHT22;22788;51.434;6.786;2023-01-10T11:36:55;7.70;99.90
36856;DHT22;22788;51.434;6.786;2023-01-10T11:39:24;7.70;99.90
36856;DHT22;22788;51.434;6.786;2023-01-10T11:41:50;7.70;99.90
36856;DHT22;22788;51.434;6.786;2023-01-10T11:44:19;7.70;99.90
36856;DHT22;22788;51.434;6.786;2023-01-10T11:46:47;7.70;99.90
36856;DHT22;22788;51.434;6.786;2023-01-10T11:49:19;7.80;99.90
36856;DHT22;22788;51.434;6.786;2023-01-10T11:51:49;7.70;99.90
36856;DHT22;22788;51.434;6.786;2023-01-10T11:54:19;7.80;99.90
36856;DHT22;22788;51.434;6.786;2023-01-10T11:56:54;7.80;99.90
36856;DHT22;22788;51.434;6.786;2023-01-10T11:59:21;7.80;99.90
36856;DHT22;22788;51.434;6.786;2023-01-10T12:01:54;7.80;99.90
36856;DHT22;22788;51.434;6.786;2023-01-10T12:04:21;7.90;99.90
36856;DHT22;22788;51.434;6.786;2023-01-10T12:06:50;7.90;99.90
36856;DHT22;22788;51.434;6.786;2023-01-10T12:09:38;7.90;99.90
36856;DHT22;22788;51.434;6.786;2023-01-10T12:12:15;7.90;99.90
36856;DHT22;22788;51.434;6.786;2023-01-10T12:14:41;7.90;99.90
36856;DHT22;22788;51.434;6.786;2023-01-10T12:17:19;7.80;99.90
36856;DHT22;22788;51.434;6.786;2023-01-10T12:19:46;7.80;99.90
36856;DHT22;22788;51.434;6.786;2023-01-10T12:22:14;7.80;99.90
36856;DHT22;22788;51.434;6.786;2023-01-10T12:24:41;7.90;99.90
36856;DHT22;22788;51.434;6.786;2023-01-10T12:27:12;7.90;99.90
36856;DHT22;22788;51.434;6.786;2023-01-10T12:29:40;7.90;99.90
36856;DHT22;22788;51.434;6.786;2023-01-10T12:32:16;7.90;99.90
36856;DHT22;22788;51.434;6.786;2023-01-10T12:34:48;7.90;99.90
36856;DHT22;22788;51.434;6.786;2023-01-10T12:37:19;7.90;99.90
36856;DHT22;22788;51.434;6.786;2023-01-10T12:39:49;7.90;99.90
36856;DHT22;22788;51.434;6.786;2023-01-10T12:42:26;8.00;99.90
36856;DHT22;22788;51.434;6.786;2023-01-10T12:44:59;8.00;99.90
36856;DHT22;22788;51.434;6.786;2023-01-10T12:47:31;8.00;99.90
36856;DHT22;22788;51.434;6.786;2023-01-10T12:50:01;8.00;99.90
36856;DHT22;22788;51.434;6.786;2023-01-10T12:52:40;8.10;99.90
36856;DHT22;22788;51.434;6.786;2023-01-10T12:55:12;8.00;99.90
36856;DHT22;22788;51.434;6.786;2023-01-10T12:57:40;8.00;99.90
36856;DHT22;22788;51.434;6.786;2023-01-10T13:00:17;8.00;99.90
36856;DHT22;22788;51.434;6.786;2023-01-10T13:02:46;8.00;99.90
36856;DHT22;22788;51.434;6.786;2023-01-10T13:05:17;8.10;99.90
36856;DHT22;22788;51.434;6.786;2023-01-10T13:07:44;8.10;99.90
36856;DHT22;22788;51.434;6.786;2023-01-10T13:10:14;8.00;99.90
36856;DHT22;22788;51.434;6.786;2023-01-10T13:12:47;8.00;99.90
36856;DHT22;22788;51.434;6.786;2023-01-10T13:15:19;8.00;99.90
36856;DHT22;22788;51.434;6.786;2023-01-10T13:17:49;8.10;99.90
36856;DHT22;22788;51.434;6.786;2023-01-10T13:20:36;8.00;99.90
36856;DHT22;22788;51.434;6.786;2023-01-10T13:25:58;8.10;99.90
36856;DHT22;22788;51.434;6.786;2023-01-10T13:28:28;8.10;99.90
36856;DHT22;22788;51.434;6.786;2023-01-10T13:30:56;8.10;99.90
36856;DHT22;22788;51.434;6.786;2023-01-10T13:33:24;8.10;99.90
36856;DHT22;22788;51.434;6.786;2023-01-10T13:35:53;8.10;99.90
36856;DHT22;22788;51.434;6.786;2023-01-10T13:38:22;8.10;99.90
36856;DHT22;22788;51.434;6.786;2023-01-10T13:40:59;8.20;99.90
36856;DHT22;22788;51.434;6.786;2023-01-10T13:43:37;8.20;99.90
36856;DHT22;22788;51.434;6.786;2023-01-10T13:52:32;8.10;99.90
36856;DHT22;22788;51.434;6.786;2023-01-10T13:55:00;8.20;99.90
36856;DHT22;22788;51.434;6.786;2023-01-10T13:57:48;8.20;99.90
36856;DHT22;22788;51.434;6.786;2023-01-10T14:00:58;8.20;99.90
36856;DHT22;22788;51.434;6.786;2023-01-10T14:03:45;8.20;99.90
36856;DHT22;22788;51.434;6.786;2023-01-10T14:06:16;8.20;99.90
36856;DHT22;22788;51.434;6.786;2023-01-10T14:08:49;8.20;99.90
36856;DHT22;22788;51.434;6.786;2023-01-10T14:11:17;8.20;99.90
36856;DHT22;22788;51.434;6.786;2023-01-10T14:13:46;8.20;99.90
36856;DHT22;22788;51.434;6.786;2023-01-10T14:16:32;8.20;99.90
36856;DHT22;22788;51.434;6.786;2023-01-10T14:18:59;8.20;99.90
36856;DHT22;22788;51.434;6.786;2023-01-10T14:21:27;8.20;99.90
36856;DHT22;22788;51.434;6.786;2023-01-10T14:23:55;8.20;99.90
36856;DHT22;22788;51.434;6.786;2023-01-10T14:26:30;8.20;99.90
36856;DHT22;22788;51.434;6.786;2023-01-10T14:28:58;8.20;99.90
36856;DHT22;22788;51.434;6.786;2023-01-10T14:31:25;8.20;99.90
36856;DHT22;22788;51.434;6.786;2023-01-10T14:33:53;8.10;99.90
36856;DHT22;22788;51.434;6.786;2023-01-10T14:36:23;8.20;99.90
36856;DHT22;22788;51.434;6.786;2023-01-10T14:38:54;8.20;99.90
36856;DHT22;22788;51.434;6.786;2023-01-10T14:41:28;8.20;99.90
36856;DHT22;22788;51.434;6.786;2023-01-10T14:44:00;8.20;99.90
36856;DHT22;22788;51.434;6.786;2023-01-10T14:46:30;8.20;99.90
36856;DHT22;22788;51.434;6.786;2023-01-10T14:48:59;8.20;99.90
36856;DHT22;22788;51.434;6.786;2023-01-10T14:51:26;8.30;99.90
36856;DHT22;22788;51.434;6.786;2023-01-10T14:53:57;8.20;99.90
36856;DHT22;22788;51.434;6.786;2023-01-10T14:56:24;8.20;99.90
36856;DHT22;22788;51.434;6.786;2023-01-10T14:58:50;8.20;99.90
36856;DHT22;22788;51.434;6.786;2023-01-10T15:01:21;8.20;99.90
36856;DHT22;22788;51.434;6.786;2023-01-10T15:03:47;8.20;99.90
36856;DHT22;22788;51.434;6.786;2023-01-10T15:06:15;8.20;99.90
36856;DHT22;22788;51.434;6.786;2023-01-10T15:08:41;8.20;99.90
36856;DHT22;22788;51.434;6.786;2023-01-10T15:11:09;8.20;99.90
36856;DHT22;22788;51.434;6.786;2023-01-10T15:13:49;8.20;99.90
36856;DHT22;22788;51.434;6.786;2023-01-10T15:16:18;8.20;99.90
36856;DHT22;22788;51.434;6.786;2023-01-10T15:18:44;8.20;99.90
36856;DHT22;22788;51.434;6.786;2023-01-10T15:21:12;8.20;99.90
36856;DHT22;22788;51.434;6.786;2023-01-10T15:23:42;8.20;99.90
36856;DHT22;22788;51.434;6.786;2023-01-10T15:26:10;8.20;99.90
36856;DHT22;22788;51.434;6.786;2023-01-10T15:28:37;8.20;99.90
36856;DHT22;22788;51.434;6.786;2023-01-10T15:31:04;8.20;99.90
36856;DHT22;22788;51.434;6.786;2023-01-10T15:33:34;8.20;99.90
36856;DHT22;22788;51.434;6.786;2023-01-10T15:36:06;8.20;99.90
36856;DHT22;22788;51.434;6.786;2023-01-10T15:38:35;8.20;99.90
36856;DHT22;22788;51.434;6.786;2023-01-10T15:41:05;8.20;99.90
36856;DHT22;22788;51.434;6.786;2023-01-10T15:43:32;8.20;99.90
36856;DHT22;22788;51.434;6.786;2023-01-10T15:46:01;8.20;99.90
36856;DHT22;22788;51.434;6.786;2023-01-10T15:48:30;8.20;99.90
36856;DHT22;22788;51.434;6.786;2023-01-10T15:50:57;8.20;99.90
36856;DHT22;22788;51.434;6.786;2023-01-10T15:53:50;8.20;99.90
36856;DHT22;22788;51.434;6.786;2023-01-10T15:56:19;8.20;99.90
36856;DHT22;22788;51.434;6.786;2023-01-10T15:58:47;8.20;99.90
36856;DHT22;22788;51.434;6.786;2023-01-10T16:01:14;8.10;99.90
36856;DHT22;22788;51.434;6.786;2023-01-10T16:03:44;8.10;99.90
36856;DHT22;22788;51.434;6.786;2023-01-10T16:06:21;8.20;99.90
36856;DHT22;22788;51.434;6.786;2023-01-10T16:08:49;8.20;99.90
36856;DHT22;22788;51.434;6.786;2023-01-10T16:11:19;8.20;99.90
36856;DHT22;22788;51.434;6.786;2023-01-10T16:13:47;8.20;99.90
36856;DHT22;22788;51.434;6.786;2023-01-10T16:16:15;8.20;99.90
36856;DHT22;22788;51.434;6.786;2023-01-10T16:18:43;8.20;99.90